VAJM

Details ICAO VAJM (JGA)
Name JAMNAGAR
Region India
Timezone Asia/Kolkata (UTC+5.5)
Plans Departing 3
Arriving 14
Stats Elevation 69 ft / 21 m (AMSL)
Location 22.464330° 70.009378°
Runways 2
Magnetic Variation 0.522° E
Sunrise 2018-05-24 00:38:19 UTC / 2018-05-24 06:08:19 Local
Sunset 2018-05-24 13:58:07 UTC / 2018-05-24 19:28:07 Local
Advertisement - Login to hide

Runways

ID Width Length Bearing (true) Bearing (mag) Surface Threshold Offset Overrun Length
06 148 ft / 45 m 8,224 ft / 2,507 m 61.27° 60.75° Concrete 0 ft / 0 m 140 ft / 43 m
12 148 ft / 45 m 8,208 ft / 2,502 m 116.62° 116.10° Asphalt 0 ft / 0 m 450 ft / 137 m
24 148 ft / 45 m 8,224 ft / 2,507 m 241.28° 240.76° Concrete 0 ft / 0 m 82 ft / 25 m
30 148 ft / 45 m 8,208 ft / 2,502 m 296.63° 296.11° Asphalt 0 ft / 0 m 100 ft / 30 m

Map

Weather


0- 5 10 15 20 25 30 35+ Temperature / ° C

Clouds and Precipitation
Forecast for 2018-05-24 18:00 UTC. Updated an hour ago

Ground ~20,000 ft ~40,000 ft Winds

METAR

Not found

TAF

TAF VAJM 241100Z 2412/2421 27010KT 4000 FU NSC

Frequencies

Tower 123.50 MHz TWR
Warning: Do not use this data for real-world aviation or navigation. No guarantee of current accuracy is given.